• Join FlightAware (Why Join?)
  • Login
  • US Flag 
08:01PM EST


 

Airport Tracker/Info


-or-


 

Live Flight TrackerFlight Track Log ✈ N249A ✈ 25-Apr-2014 ✈ CYUL - KIAG

Flight Track Log - Related Links

Times and Time Zones

All times are in EDT time to prevent confusion due to time zone crossing. See the N249A flight status page for this flight to view local times or setup timezone preferences in your user account.

Time Position Orientation Groundspeed Altitude Reporting Facility
EDT Latitude Longitude Course Direction KTS MPH feet Rate Location/Type
09:54AM 45.4667 -73.7000 35° Northeast 90 104 800  Level Montreal Center
09:55AM 45.4833 -73.6667 54° Northeast 100 115 1,900 1,020 Climbing Montreal Center
09:56AM 45.5000 -73.6500 35° Northeast 100 115 2,900 900 Climbing Montreal Center
09:57AM 45.4833 -73.6000 115° Southeast 110 127 3,800 900 Climbing Montreal Center
09:58AM 45.4667 -73.5833 145° Southeast 120 138 4,700 600 Climbing Montreal Center
09:59AM 45.2470 -73.8585 203° Southwest  Level FlightAware Approximate
09:59AM 45.4333 -73.5333 134° Southeast 130 150 5,000  Level Montreal Center
10:00AM 45.4000 -73.5333 180° South 170 196 5,000  Level Montreal Center
10:01AM 45.3500 -73.5167 167° South 180 207 5,000  Level Montreal Center
10:02AM 45.3000 -73.5167 180° South 170 196 5,000  Level Montreal Center
10:03AM 45.2500 -73.5333 193° South 170 196 5,000  Level Montreal Center
10:04AM 45.2167 -73.5667 215° Southwest 170 196 5,000  Level Montreal Center
10:05AM 45.1667 -73.6000 205° Southwest 170 196 5,000  Level Montreal Center
10:06AM 45.1167 -73.6167 193° South 170 196 5,000  Level Montreal Center
10:07AM 45.0833 -73.6500 215° Southwest 170 196 5,000  Level Montreal Center
10:08AM 45.0333 -73.7000 215° Southwest 170 196 5,100 300 Climbing Montreal Center
10:09AM 45.0000 -73.7000 180° South 150 173 5,700 600 Climbing Montreal Center
10:10AM 44.9500 -73.7167 193° South 150 173 6,300 600 Climbing Montreal Center
10:11AM 44.9167 -73.7500 215° Southwest 140 161 6,900 540 Climbing Montreal Center
10:12AM 44.8833 -73.7667 200° South 140 161 7,400 480 Climbing Montreal Center
10:13AM 44.8500 -73.8000 215° Southwest 130 150 7,900 300 Climbing Montreal Center
10:14AM 44.8000 -73.8000 180° South 160 184 8,000  Climbing Montreal Center
10:15AM 44.7667 -73.8167 200° South 160 184 8,000  Level Montreal Center
10:16AM 44.7167 -73.8500 205° Southwest 160 184 8,000  Level Montreal Center
10:17AM 44.7000 -73.9000 245° Southwest 140 161 8,000  Level Montreal Center
10:18AM 44.7311 -73.9822 298° West 142 163 8,000  Level Boston Center
10:19AM 44.7414 -74.0350 285° West 141 162 8,000  Level Boston Center
10:20AM 44.7539 -74.0894 288° West 140 161 8,000  Level Boston Center
10:21AM 44.7650 -74.1389 288° West 140 161 8,000  Level Boston Center
10:22AM 44.7767 -74.1917 287° West 140 161 8,000  Level Boston Center
10:23AM 44.7881 -74.2422 288° West 140 161 8,000  Level Boston Center
10:24AM 44.8000 -74.2947 288° West 139 160 8,000  Level Boston Center
10:25AM 44.8125 -74.3464 289° West 139 160 8,000  Level Boston Center
10:27AM 44.8275 -74.4094 289° West 140 161 8,000  Level Boston Center
10:28AM 44.8425 -74.4600 293° West 140 161 8,000  Level Boston Center
10:29AM 44.8642 -74.5044 305° West 139 160 8,000  Level Boston Center
10:30AM 44.8833 -74.5667 294° West 130 150 8,000  Level Montreal Center
10:31AM 44.9000 -74.6167 295° West 140 161 8,000  Level Montreal Center
10:32AM 44.9000 -74.6667 270° West 140 161 8,000  Level Montreal Center
10:33AM 44.9000 -74.7167 270° West 140 161 8,000  Level Montreal Center
10:34AM 44.8833 -74.7833 251° West 140 161 8,000  Level Montreal Center
10:35AM 44.8833 -74.8333 270° West 140 161 8,000  Level Montreal Center
10:36AM 44.8667 -74.8833 245° Southwest 140 161 8,000  Level Montreal Center
10:37AM 44.8500 -74.9333 245° Southwest 140 161 8,000 -60 Level Montreal Center
10:38AM 44.8333 -74.9833 245° Southwest 140 161 7,900  Descending Montreal Center
10:39AM 44.8167 -75.0167 235° Southwest 140 161 8,000  Climbing Montreal Center
10:40AM 44.8000 -75.1000 254° West 140 161 7,900  Descending Montreal Center
10:41AM 44.7833 -75.1500 245° Southwest 140 161 8,000  Climbing Montreal Center
10:42AM 44.7667 -75.1833 235° Southwest 140 161 7,900 -60 Descending Montreal Center
10:43AM 44.7500 -75.2333 245° Southwest 140 161 7,900  Level Montreal Center
10:44AM 44.7333 -75.2833 245° Southwest 140 161 7,900  Level Montreal Center
10:45AM 44.7167 -75.3333 245° Southwest 140 161 8,000  Climbing Montreal Center
10:46AM 44.7000 -75.4000 251° West 140 161 7,900  Descending Montreal Center
10:47AM 44.6667 -75.4333 215° Southwest 150 173 8,000  Climbing Montreal Center
10:48AM 44.6333 -75.4500 200° South 150 173 7,900  Descending Montreal Center
10:49AM 44.6000 -75.4667 200° South 150 173 8,000  Climbing Montreal Center
10:50AM 44.5667 -75.5167 227° Southwest 150 173 7,900 -60 Descending Montreal Center
10:51AM 44.5333 -75.5500 215° Southwest 150 173 7,900 60 Level Montreal Center
10:52AM 44.4833 -75.5667 193° South 150 173 8,100 60 Climbing Montreal Center
10:53AM 44.4500 -75.6000 216° Southwest 150 173 8,100  Level Montreal Center
10:54AM 44.4167 -75.6333 216° Southwest 150 173 8,100  Level Montreal Center
10:55AM 44.3833 -75.6667 216° Southwest 150 173 8,100  Level Montreal Center
10:56AM 44.3617 -75.7000 228° Southwest 151 174 8,100  Level Boston Center
10:57AM 44.3236 -75.7317 211° Southwest 151 174 8,100  Level Boston Center
10:58AM 44.2883 -75.7614 211° Southwest 151 174 8,100  Level Boston Center
10:59AM 44.2544 -75.7944 215° Southwest 151 174 8,100  Level Boston Center
11:00AM 44.2181 -75.8294 215° Southwest 150 173 8,100  Level Boston Center
11:01AM 44.1842 -75.8625 215° Southwest 151 174 8,100  Level Boston Center
11:01AM 44.1817 -75.8644 209° Southwest 151 174 8,100 -120 Level Boston Center
11:02AM 44.1481 -75.8981 216° Southwest 151 174 8,000  Descending Boston Center
11:03AM 44.1114 -75.9325 214° Southwest 152 175 8,100  Climbing Boston Center
11:04AM 44.0775 -75.9653 215° Southwest 151 174 8,100  Level Boston Center
11:05AM 44.0411 -76.0003 215° Southwest 151 174 8,100  Level Boston Center
11:06AM 44.0092 -76.0336 217° Southwest 150 173 8,100  Level Boston Center
11:07AM 43.9681 -76.0581 203° Southwest 152 175 8,100 -120 Level Boston Center
11:07AM 43.9739 -76.0594 350° North 149 171 8,000 -120 Descending Boston Center
11:08AM 43.9239 -76.0803 197° South 153 176 8,000  Level Boston Center
11:09AM 43.8853 -76.0883 189° South 156 180 8,100  Climbing Boston Center
11:09AM 43.8814 -76.0925 218° Southwest 153 176 8,000  Descending Boston Center
11:10AM 43.8403 -76.0994 187° South 154 177 8,100  Climbing Boston Center
11:10AM 43.8408 -76.1056 277° West 154 177 8,000  Descending Boston Center
11:11AM 43.8011 -76.1122 187° South 152 175 8,100 60 Climbing Boston Center
11:11AM 43.7942 -76.1192 216° Southwest 152 175 8,100  Level Boston Center
11:12AM 43.7556 -76.1333 195° South 150 173 8,100  Level Boston Center
11:14AM 43.7103 -76.1486 194° South 149 171 8,100 -60 Level Boston Center
11:15AM 43.6783 -76.1594 194° South 151 174 8,000  Descending Boston Center
11:15AM 43.6358 -76.1836 202° Southwest 150 173 8,100  Climbing Boston Center
11:17AM 43.5989 -76.2172 213° Southwest 151 174 8,000 -60 Descending Boston Center
11:18AM 43.5731 -76.2589 229° Southwest 148 170 8,000  Level Boston Center
11:19AM 43.5531 -76.3072 240° Southwest 143 165 8,100  Climbing Boston Center
11:20AM 43.5317 -76.3564 239° Southwest 144 166 8,100  Level Boston Center
11:21AM 43.5131 -76.4033 241° Southwest 144 166 8,100  Level Boston Center
11:22AM 43.4922 -76.4494 238° Southwest 145 167 8,100 -120 Level Boston Center
11:22AM 43.4914 -76.4494 180° South 146 168 8,000 -120 Descending Boston Center
11:23AM 43.4667 -76.5067 239° Southwest 146 168 8,000  Level Boston Center
11:24AM 43.4475 -76.5556 242° Southwest 146 168 8,000  Level Boston Center
11:25AM 43.4267 -76.6033 239° Southwest 146 168 8,000  Level Boston Center
11:26AM 43.4075 -76.6511 241° Southwest 146 168 8,000  Level Boston Center
11:27AM 43.3864 -76.7006 240° Southwest 145 167 8,000  Level Boston Center
11:28AM 43.3667 -76.7472 240° Southwest 145 167 8,100  Climbing Boston Center
11:29AM 43.3511 -76.7953 246° West 143 165 8,100  Level Boston Center
11:30AM 43.3386 -76.8475 252° West 143 165 8,100  Level Boston Center
11:31AM 43.3242 -76.9114 253° West 143 165 8,100 -60 Level Boston Center
11:32AM 43.3117 -76.9600 251° West 143 165 8,000 -120 Descending Cleveland Center
11:32AM 43.3067 -76.9825 253° West 144 166 8,000  Level Cleveland Center
11:33AM 43.2997 -77.0117 252° West 143 165 8,000  Level Cleveland Center
11:33AM 43.2953 -77.0347 255° West 144 166 8,000  Level Cleveland Center
11:34AM 43.2867 -77.0664 250° West 143 165 8,000  Level Cleveland Center
11:34AM 43.2811 -77.0922 254° West 144 166 8,000  Level Cleveland Center
11:35AM 43.2739 -77.1178 249° West 143 165 8,000  Level Cleveland Center
11:35AM 43.2681 -77.1411 251° West 144 166 8,000  Level Cleveland Center
11:36AM 43.2614 -77.1697 252° West 143 165 8,000  Level Cleveland Center
11:37AM 43.2531 -77.2039 251° West 143 165 8,000  Level Cleveland Center
11:37AM 43.2467 -77.2311 252° West 143 165 8,000  Level Cleveland Center
11:38AM 43.2392 -77.2583 249° West 143 165 8,000  Level Cleveland Center
11:38AM 43.2331 -77.2833 251° West 143 165 8,000  Level Cleveland Center
11:39AM 43.2194 -77.3333 250° West 143 165 8,000  Level Cleveland Center
11:40AM 43.2117 -77.3642 251° West 142 163 8,000  Level Cleveland Center
11:40AM 43.2058 -77.3839 248° West 143 165 8,000  Level Cleveland Center
11:41AM 43.1994 -77.4075 250° West 143 165 8,000  Level Cleveland Center
11:41AM 43.1919 -77.4350 249° West 143 165 8,000  Level Cleveland Center
11:42AM 43.1853 -77.4617 251° West 144 166 8,000  Level Cleveland Center
11:42AM 43.1778 -77.4861 247° West 143 165 8,000  Level Cleveland Center
11:43AM 43.1717 -77.5133 253° West 145 167 8,000  Level Cleveland Center
11:43AM 43.1622 -77.5478 249° West 143 165 8,000  Level Cleveland Center
11:44AM 43.1589 -77.5592 248° West 143 165 8,000  Level Cleveland Center
11:44AM 43.1486 -77.5983 250° West 143 165 8,000  Level Cleveland Center
11:45AM 43.1433 -77.6103 239° Southwest 139 160 8,000  Level Cleveland Center
11:45AM 43.1328 -77.6467 248° West 143 165 8,000  Level Cleveland Center
11:46AM 43.1186 -77.6967 249° West 142 163 8,000 -240 Level Cleveland Center
11:47AM 43.1233 -77.7564 276° West 153 176 7,600 -480 Descending Cleveland Center
11:49AM 43.1239 -77.8339 271° West 168 193 7,000 -480 Descending Cleveland Center
11:50AM 43.1258 -77.8847 273° West 166 191 6,700 -540 Descending Cleveland Center
11:51AM 43.1244 -77.9636 269° West 170 196 6,000 -660 Descending Cleveland Center
11:52AM 43.1222 -78.0308 267° West 173 199 5,400 -600 Descending Cleveland Center
11:53AM 43.1197 -78.0986 267° West 174 200 4,800 -600 Descending Cleveland Center
11:54AM 43.1203 -78.1694 271° West 180 207 4,200 -420 Descending Cleveland Center
11:55AM 43.1217 -78.2356 272° West 181 208 4,000 -120 Descending Cleveland Center
11:56AM 43.1233 -78.2972 272° West 173 199 4,000  Level Cleveland Center
11:57AM 43.1289 -78.3675 276° West 164 189 4,000  Level Cleveland Center
11:58AM 43.1236 -78.4239 263° West 155 178 4,000  Level Cleveland Center
11:59AM 43.1200 -78.4808 265° West 154 177 4,100  Climbing Cleveland Center
12:00PM 43.1172 -78.5475 267° West 156 180 4,100 -60 Level Cleveland Center
12:01PM 43.1122 -78.6028 263° West 154 177 4,000 -480 Descending Cleveland Center
12:02PM 43.1133 -78.6686 271° West 162 186 3,200 -660 Descending Cleveland Center
12:03PM 43.1144 -78.7353 271° West 167 192 2,700 -540 Descending Cleveland Center
12:04PM 43.1167 -78.8031 273° West 170 196 2,200 -540 Descending Cleveland Center
12:05PM 43.1189 -78.8683 273° West 168 193 1,700 -420 Descending Cleveland Center
12:06PM 43.1186 -78.9203 270° West 159 183 1,400 -300 Descending Cleveland Center
12:07PM 43.1217 -78.9703 275° West 130 150 1,200 -180 Descending Cleveland Center
12:08PM 43.0950 -78.9811 197° South 121 139 1,100 -120 Descending Cleveland Center
12:10PM 43.1000 -78.9333 90° East  Level FlightAware Approximate
12:17PM 43.1076 -78.9458 90° East  Level Estimated